sensor_id;sensor_type;location;lat;lon;timestamp;pressure;altitude;pressure_sealevel;temperature;humidity
49377;BME280;35253;34.688;33.040;2023-02-11T00:01:20;101853.63;;;10.55;100.00
49377;BME280;35253;34.688;33.040;2023-02-11T00:03:46;101843.09;;;10.52;100.00
49377;BME280;35253;34.688;33.040;2023-02-11T00:06:11;101845.06;;;10.47;100.00
49377;BME280;35253;34.688;33.040;2023-02-11T00:08:37;101846.81;;;10.48;100.00
49377;BME280;35253;34.688;33.040;2023-02-11T00:11:03;101847.38;;;10.56;100.00
49377;BME280;35253;34.688;33.040;2023-02-11T00:13:28;101845.81;;;10.50;100.00
49377;BME280;35253;34.688;33.040;2023-02-11T00:15:54;101843.88;;;10.54;100.00
49377;BME280;35253;34.688;33.040;2023-02-11T00:18:20;101848.91;;;10.39;100.00
49377;BME280;35253;34.688;33.040;2023-02-11T00:20:45;101832.66;;;10.46;100.00
49377;BME280;35253;34.688;33.040;2023-02-11T00:23:11;101832.09;;;10.37;100.00
49377;BME280;35253;34.688;33.040;2023-02-11T00:25:40;101833.66;;;10.21;100.00
49377;BME280;35253;34.688;33.040;2023-02-11T00:28:05;101826.69;;;10.17;100.00
49377;BME280;35253;34.688;33.040;2023-02-11T00:30:31;101835.38;;;9.99;100.00
49377;BME280;35253;34.688;33.040;2023-02-11T00:32:56;101829.34;;;9.94;100.00
49377;BME280;35253;34.688;33.040;2023-02-11T00:35:22;101832.13;;;9.91;100.00
49377;BME280;35253;34.688;33.040;2023-02-11T00:37:47;101838.72;;;9.81;100.00
49377;BME280;35253;34.688;33.040;2023-02-11T00:40:13;101840.00;;;9.94;100.00
49377;BME280;35253;34.688;33.040;2023-02-11T00:42:40;101840.00;;;9.94;100.00
49377;BME280;35253;34.688;33.040;2023-02-11T00:45:06;101845.28;;;9.95;100.00
49377;BME280;35253;34.688;33.040;2023-02-11T00:47:34;101837.16;;;9.99;100.00
49377;BME280;35253;34.688;33.040;2023-02-11T00:49:59;101836.16;;;10.01;100.00
49377;BME280;35253;34.688;33.040;2023-02-11T00:52:25;101828.72;;;10.09;100.00
49377;BME280;35253;34.688;33.040;2023-02-11T00:54:50;101822.13;;;9.96;100.00
49377;BME280;35253;34.688;33.040;2023-02-11T00:57:15;101823.66;;;10.03;100.00
49377;BME280;35253;34.688;33.040;2023-02-11T00:59:41;101822.28;;;10.16;100.00
49377;BME280;35253;34.688;33.040;2023-02-11T01:02:06;101823.22;;;10.15;100.00
49377;BME280;35253;34.688;33.040;2023-02-11T01:04:32;101823.22;;;10.15;100.00
49377;BME280;35253;34.688;33.040;2023-02-11T01:06:57;101820.25;;;10.23;100.00
49377;BME280;35253;34.688;33.040;2023-02-11T01:09:23;101828.94;;;10.28;100.00
49377;BME280;35253;34.688;33.040;2023-02-11T01:11:48;101826.78;;;10.37;100.00
49377;BME280;35253;34.688;33.040;2023-02-11T01:14:13;101821.09;;;10.23;100.00
49377;BME280;35253;34.688;33.040;2023-02-11T01:16:39;101815.91;;;10.20;100.00
49377;BME280;35253;34.688;33.040;2023-02-11T01:19:04;101818.63;;;10.19;100.00
49377;BME280;35253;34.688;33.040;2023-02-11T01:21:30;101819.38;;;10.22;100.00
49377;BME280;35253;34.688;33.040;2023-02-11T01:23:55;101819.50;;;10.19;100.00
49377;BME280;35253;34.688;33.040;2023-02-11T01:26:21;101807.00;;;10.21;100.00
49377;BME280;35253;34.688;33.040;2023-02-11T01:28:46;101808.97;;;10.15;100.00
49377;BME280;35253;34.688;33.040;2023-02-11T01:31:12;101804.84;;;10.08;100.00
49377;BME280;35253;34.688;33.040;2023-02-11T01:33:37;101799.22;;;10.15;100.00
49377;BME280;35253;34.688;33.040;2023-02-11T01:36:03;101802.09;;;10.09;100.00
49377;BME280;35253;34.688;33.040;2023-02-11T01:38:29;101799.38;;;10.11;100.00
49377;BME280;35253;34.688;33.040;2023-02-11T01:40:56;101796.56;;;10.15;100.00
49377;BME280;35253;34.688;33.040;2023-02-11T01:43:23;101805.44;;;10.14;100.00
49377;BME280;35253;34.688;33.040;2023-02-11T01:45:59;101801.75;;;10.18;100.00
49377;BME280;35253;34.688;33.040;2023-02-11T01:50:55;101796.66;;;10.12;100.00
49377;BME280;35253;34.688;33.040;2023-02-11T01:53:21;101794.78;;;10.14;100.00
49377;BME280;35253;34.688;33.040;2023-02-11T01:56:06;101792.09;;;10.16;100.00
49377;BME280;35253;34.688;33.040;2023-02-11T01:58:51;101790.31;;;10.16;100.00
49377;BME280;35253;34.688;33.040;2023-02-11T02:01:20;101784.13;;;10.14;100.00
49377;BME280;35253;34.688;33.040;2023-02-11T02:03:47;101787.84;;;10.10;100.00
49377;BME280;35253;34.688;33.040;2023-02-11T02:06:15;101786.88;;;10.13;100.00
49377;BME280;35253;34.688;33.040;2023-02-11T02:08:49;101786.72;;;10.17;100.00
49377;BME280;35253;34.688;33.040;2023-02-11T02:11:16;101775.84;;;10.00;100.00
49377;BME280;35253;34.688;33.040;2023-02-11T02:13:42;101777.69;;;9.98;100.00
49377;BME280;35253;34.688;33.040;2023-02-11T02:16:10;101777.81;;;9.95;100.00
49377;BME280;35253;34.688;33.040;2023-02-11T02:18:43;101764.19;;;9.79;100.00
49377;BME280;35253;34.688;33.040;2023-02-11T02:33:47;101759.75;;;9.57;100.00
49377;BME280;35253;34.688;33.040;2023-02-11T02:36:20;101767.84;;;9.77;100.00
49377;BME280;35253;34.688;33.040;2023-02-11T02:41:15;101765.94;;;9.80;100.00
49377;BME280;35253;34.688;33.040;2023-02-11T02:43:44;101758.19;;;9.96;100.00
49377;BME280;35253;34.688;33.040;2023-02-11T02:46:18;101758.72;;;10.06;100.00
49377;BME280;35253;34.688;33.040;2023-02-11T02:48:44;101758.09;;;9.99;100.00
49377;BME280;35253;34.688;33.040;2023-02-11T02:51:35;101758.34;;;9.93;100.00
49377;BME280;35253;34.688;33.040;2023-02-11T03:01:41;101748.53;;;10.17;100.00
49377;BME280;35253;34.688;33.040;2023-02-11T03:04:20;101749.09;;;10.25;100.00
49377;BME280;35253;34.688;33.040;2023-02-11T03:06:48;101758.66;;;10.30;100.00
49377;BME280;35253;34.688;33.040;2023-02-11T03:09:22;101741.06;;;10.26;100.00
49377;BME280;35253;34.688;33.040;2023-02-11T03:11:48;101752.44;;;10.30;100.00
49377;BME280;35253;34.688;33.040;2023-02-11T03:14:14;101745.00;;;10.38;100.00
49377;BME280;35253;34.688;33.040;2023-02-11T03:16:41;101742.28;;;10.39;100.00
49377;BME280;35253;34.688;33.040;2023-02-11T03:19:10;101737.75;;;10.42;100.00
49377;BME280;35253;34.688;33.040;2023-02-11T03:21:37;101748.72;;;10.34;100.00
49377;BME280;35253;34.688;33.040;2023-02-11T03:24:07;101739.66;;;10.38;100.00
49377;BME280;35253;34.688;33.040;2023-02-11T03:26:39;101754.41;;;10.47;100.00
49377;BME280;35253;34.688;33.040;2023-02-11T03:31:39;101740.53;;;10.38;100.00
49377;BME280;35253;34.688;33.040;2023-02-11T03:39:30;101749.31;;;10.40;100.00
49377;BME280;35253;34.688;33.040;2023-02-11T03:41:57;101758.13;;;10.43;100.00
49377;BME280;35253;34.688;33.040;2023-02-11T03:44:24;101757.03;;;10.48;100.00
49377;BME280;35253;34.688;33.040;2023-02-11T03:46:53;101764.34;;;10.43;100.00
49377;BME280;35253;34.688;33.040;2023-02-11T03:49:20;101747.53;;;10.41;100.00
49377;BME280;35253;34.688;33.040;2023-02-11T03:51:47;101752.06;;;10.39;100.00
49377;BME280;35253;34.688;33.040;2023-02-11T03:54:14;101756.78;;;10.32;100.00
49377;BME280;35253;34.688;33.040;2023-02-11T03:56:49;101766.19;;;10.41;100.00
49377;BME280;35253;34.688;33.040;2023-02-11T03:59:15;101761.88;;;10.38;100.00
49377;BME280;35253;34.688;33.040;2023-02-11T04:01:41;101763.47;;;10.43;100.00
49377;BME280;35253;34.688;33.040;2023-02-11T04:04:06;101752.56;;;10.49;100.00
49377;BME280;35253;34.688;33.040;2023-02-11T04:06:32;101760.00;;;10.40;100.00
49377;BME280;35253;34.688;33.040;2023-02-11T04:08:57;101768.31;;;10.33;100.00
49377;BME280;35253;34.688;33.040;2023-02-11T04:11:23;101759.13;;;10.40;100.00
49377;BME280;35253;34.688;33.040;2023-02-11T04:13:48;101757.41;;;10.39;100.00
49377;BME280;35253;34.688;33.040;2023-02-11T04:16:13;101761.69;;;10.43;100.00
49377;BME280;35253;34.688;33.040;2023-02-11T04:18:39;101760.00;;;10.40;100.00
49377;BME280;35253;34.688;33.040;2023-02-11T04:21:04;101751.78;;;10.45;100.00
49377;BME280;35253;34.688;33.040;2023-02-11T04:23:30;101751.19;;;10.38;100.00
49377;BME280;35253;34.688;33.040;2023-02-11T04:25:55;101747.91;;;10.32;100.00
49377;BME280;35253;34.688;33.040;2023-02-11T04:28:21;101747.84;;;10.33;100.00
49377;BME280;35253;34.688;33.040;2023-02-11T04:30:47;101732.72;;;10.34;100.00
49377;BME280;35253;34.688;33.040;2023-02-11T04:33:13;101739.44;;;10.44;100.00
49377;BME280;35253;34.688;33.040;2023-02-11T04:35:38;101730.81;;;10.37;100.00
49377;BME280;35253;34.688;33.040;2023-02-11T04:38:04;101729.88;;;10.38;100.00
49377;BME280;35253;34.688;33.040;2023-02-11T04:40:29;101725.91;;;10.49;100.00
49377;BME280;35253;34.688;33.040;2023-02-11T04:42:54;101724.41;;;10.42;100.00
49377;BME280;35253;34.688;33.040;2023-02-11T04:45:20;101725.31;;;10.40;100.00
49377;BME280;35253;34.688;33.040;2023-02-11T04:47:45;101727.81;;;10.45;100.00
49377;BME280;35253;34.688;33.040;2023-02-11T04:50:11;101729.75;;;10.42;100.00
49377;BME280;35253;34.688;33.040;2023-02-11T04:52:36;101727.06;;;10.42;100.00
49377;BME280;35253;34.688;33.040;2023-02-11T04:55:02;101726.16;;;10.43;100.00
49377;BME280;35253;34.688;33.040;2023-02-11T04:57:27;101722.41;;;10.47;100.00
49377;BME280;35253;34.688;33.040;2023-02-11T04:59:52;101718.69;;;10.51;100.00
49377;BME280;35253;34.688;33.040;2023-02-11T05:02:18;101713.59;;;10.45;100.00
49377;BME280;35253;34.688;33.040;2023-02-11T05:04:43;101729.22;;;10.54;100.00
49377;BME280;35253;34.688;33.040;2023-02-11T05:07:09;101724.94;;;10.50;100.00
49377;BME280;35253;34.688;33.040;2023-02-11T05:09:34;101719.31;;;10.57;100.00
49377;BME280;35253;34.688;33.040;2023-02-11T05:12:00;101722.81;;;10.58;100.00
49377;BME280;35253;34.688;33.040;2023-02-11T05:14:25;101726.44;;;10.57;100.00
49377;BME280;35253;34.688;33.040;2023-02-11T05:16:51;101728.03;;;10.61;100.00
49377;BME280;35253;34.688;33.040;2023-02-11T05:19:16;101729.50;;;10.68;100.00
49377;BME280;35253;34.688;33.040;2023-02-11T05:21:42;101726.84;;;10.68;100.00
49377;BME280;35253;34.688;33.040;2023-02-11T05:24:07;101736.72;;;10.66;100.00
49377;BME280;35253;34.688;33.040;2023-02-11T05:26:33;101731.19;;;10.70;100.00
49377;BME280;35253;34.688;33.040;2023-02-11T05:28:58;101739.97;;;10.72;100.00
49377;BME280;35253;34.688;33.040;2023-02-11T05:31:24;101734.97;;;10.85;100.00
49377;BME280;35253;34.688;33.040;2023-02-11T05:33:49;101733.25;;;10.84;100.00
49377;BME280;35253;34.688;33.040;2023-02-11T05:36:15;101740.59;;;10.79;100.00
49377;BME280;35253;34.688;33.040;2023-02-11T05:38:40;101734.06;;;10.86;100.00
49377;BME280;35253;34.688;33.040;2023-02-11T05:41:07;101728.38;;;10.94;100.00
49377;BME280;35253;34.688;33.040;2023-02-11T05:43:33;101738.19;;;10.93;100.00
49377;BME280;35253;34.688;33.040;2023-02-11T05:45:59;101738.31;;;10.90;100.00
49377;BME280;35253;34.688;33.040;2023-02-11T05:48:25;101746.75;;;11.01;100.00
49377;BME280;35253;34.688;33.040;2023-02-11T05:50:50;101744.72;;;11.06;100.00
49377;BME280;35253;34.688;33.040;2023-02-11T05:53:16;101741.84;;;11.11;100.00
49377;BME280;35253;34.688;33.040;2023-02-11T05:55:41;101742.72;;;11.11;100.00
49377;BME280;35253;34.688;33.040;2023-02-11T05:58:06;101730.84;;;11.18;100.00
49377;BME280;35253;34.688;33.040;2023-02-11T06:00:32;101747.13;;;11.12;100.00
49377;BME280;35253;34.688;33.040;2023-02-11T06:02:58;101733.38;;;11.21;100.00
49377;BME280;35253;34.688;33.040;2023-02-11T06:05:24;101740.16;;;11.28;100.00
49377;BME280;35253;34.688;33.040;2023-02-11T06:07:49;101734.09;;;11.25;100.00
49377;BME280;35253;34.688;33.040;2023-02-11T06:10:15;101748.09;;;11.30;100.00
49377;BME280;35253;34.688;33.040;2023-02-11T06:12:40;101752.16;;;11.39;100.00
49377;BME280;35253;34.688;33.040;2023-02-11T06:15:06;101739.69;;;11.39;100.00
49377;BME280;35253;34.688;33.040;2023-02-11T06:17:31;101746.81;;;11.39;100.00
49377;BME280;35253;34.688;33.040;2023-02-11T06:20:00;101743.22;;;11.40;100.00
49377;BME280;35253;34.688;33.040;2023-02-11T06:22:27;101741.94;;;11.48;100.00
49377;BME280;35253;34.688;33.040;2023-02-11T06:24:52;101754.41;;;11.48;100.00
49377;BME280;35253;34.688;33.040;2023-02-11T06:27:18;101750.81;;;11.49;100.00
49377;BME280;35253;34.688;33.040;2023-02-11T06:29:43;101745.38;;;11.50;100.00
49377;BME280;35253;34.688;33.040;2023-02-11T06:32:09;101741.06;;;11.48;100.00
49377;BME280;35253;34.688;33.040;2023-02-11T06:34:35;101750.81;;;11.49;100.00
49377;BME280;35253;34.688;33.040;2023-02-11T06:37:00;101743.47;;;11.54;100.00
49377;BME280;35253;34.688;33.040;2023-02-11T06:39:25;101749.59;;;11.56;100.00
49377;BME280;35253;34.688;33.040;2023-02-11T06:41:51;101752.91;;;11.61;100.00
49377;BME280;35253;34.688;33.040;2023-02-11T06:44:16;101761.19;;;11.75;100.00
49377;BME280;35253;34.688;33.040;2023-02-11T06:46:42;101749.63;;;11.74;100.00
49377;BME280;35253;34.688;33.040;2023-02-11T06:49:07;101751.56;;;11.71;100.00
49377;BME280;35253;34.688;33.040;2023-02-11T06:51:33;101752.63;;;11.67;100.00
49377;BME280;35253;34.688;33.040;2023-02-11T06:53:58;101752.97;;;11.80;100.00
49377;BME280;35253;34.688;33.040;2023-02-11T06:56:24;101749.19;;;11.84;100.00
49377;BME280;35253;34.688;33.040;2023-02-11T06:58:54;101746.97;;;11.74;100.00
49377;BME280;35253;34.688;33.040;2023-02-11T07:01:20;101751.94;;;11.82;100.00
49377;BME280;35253;34.688;33.040;2023-02-11T07:03:46;101750.84;;;11.86;100.00
49377;BME280;35253;34.688;33.040;2023-02-11T07:06:13;101748.19;;;11.86;100.00
49377;BME280;35253;34.688;33.040;2023-02-11T07:08:39;101744.84;;;12.00;100.00
49377;BME280;35253;34.688;33.040;2023-02-11T07:11:16;101746.28;;;12.07;100.00
49377;BME280;35253;34.688;33.040;2023-02-11T07:13:43;101750.63;;;12.09;100.00
49377;BME280;35253;34.688;33.040;2023-02-11T07:16:10;101743.25;;;12.14;100.00
49377;BME280;35253;34.688;33.040;2023-02-11T07:18:36;101746.56;;;12.19;100.00
49377;BME280;35253;34.688;33.040;2023-02-11T07:21:05;101737.75;;;12.17;100.00
49377;BME280;35253;34.688;33.040;2023-02-11T07:23:31;101736.81;;;12.18;100.00
49377;BME280;35253;34.688;33.040;2023-02-11T07:25:57;101742.00;;;12.22;100.00
49377;BME280;35253;34.688;33.040;2023-02-11T07:28:22;101723.34;;;12.20;100.00
49377;BME280;35253;34.688;33.040;2023-02-11T07:30:48;101735.66;;;12.24;100.00
49377;BME280;35253;34.688;33.040;2023-02-11T07:33:13;101731.53;;;12.17;100.00
49377;BME280;35253;34.688;33.040;2023-02-11T07:35:38;101730.38;;;12.23;100.00
49377;BME280;35253;34.688;33.040;2023-02-11T07:38:04;101725.28;;;12.35;100.00
49377;BME280;35253;34.688;33.040;2023-02-11T07:40:29;101720.88;;;12.34;100.00
49377;BME280;35253;34.688;33.040;2023-02-11T07:42:55;101723.94;;;12.44;100.00
49377;BME280;35253;34.688;33.040;2023-02-11T07:45:21;101725.31;;;12.52;100.00
49377;BME280;35253;34.688;33.040;2023-02-11T07:47:46;101712.56;;;12.40;100.00
49377;BME280;35253;34.688;33.040;2023-02-11T07:50:12;101721.91;;;12.49;100.00
49377;BME280;35253;34.688;33.040;2023-02-11T07:52:37;101722.56;;;12.54;100.00
49377;BME280;35253;34.688;33.040;2023-02-11T07:55:02;101725.38;;;12.51;100.00
49377;BME280;35253;34.688;33.040;2023-02-11T07:57:28;101723.31;;;12.56;100.00
49377;BME280;35253;34.688;33.040;2023-02-11T07:59:53;101717.84;;;12.59;100.00
49377;BME280;35253;34.688;33.040;2023-02-11T08:02:19;101719.56;;;12.60;100.00
49377;BME280;35253;34.688;33.040;2023-02-11T08:04:45;101708.84;;;12.60;100.00
49377;BME280;35253;34.688;33.040;2023-02-11T08:07:13;101697.22;;;12.61;100.00
49377;BME280;35253;34.688;33.040;2023-02-11T08:09:39;101701.16;;;12.54;100.00
49377;BME280;35253;34.688;33.040;2023-02-11T08:12:04;101696.75;;;12.53;100.00
49377;BME280;35253;34.688;33.040;2023-02-11T08:14:30;101694.53;;;12.44;100.00
49377;BME280;35253;34.688;33.040;2023-02-11T08:16:56;101692.66;;;12.46;100.00
49377;BME280;35253;34.688;33.040;2023-02-11T08:19:22;101687.69;;;12.38;100.00
49377;BME280;35253;34.688;33.040;2023-02-11T08:21:48;101666.84;;;12.45;100.00
49377;BME280;35253;34.688;33.040;2023-02-11T08:24:13;101689.81;;;12.49;100.00
49377;BME280;35253;34.688;33.040;2023-02-11T08:26:39;101685.25;;;12.51;100.00
49377;BME280;35253;34.688;33.040;2023-02-11T08:29:06;101678.66;;;12.58;100.00
49377;BME280;35253;34.688;33.040;2023-02-11T08:31:33;101659.06;;;12.57;100.00
49377;BME280;35253;34.688;33.040;2023-02-11T08:33:59;101663.22;;;12.63;100.00
49377;BME280;35253;34.688;33.040;2023-02-11T08:36:30;101657.47;;;12.71;100.00
49377;BME280;35253;34.688;33.040;2023-02-11T08:38:59;101663.22;;;12.80;100.00
49377;BME280;35253;34.688;33.040;2023-02-11T08:41:27;101654.34;;;12.95;100.00
49377;BME280;35253;34.688;33.040;2023-02-11T08:43:53;101655.47;;;12.91;100.00
49377;BME280;35253;34.688;33.040;2023-02-11T08:46:18;101648.13;;;12.95;100.00
49377;BME280;35253;34.688;33.040;2023-02-11T08:48:44;101648.25;;;12.93;100.00
49377;BME280;35253;34.688;33.040;2023-02-11T08:51:13;101649.81;;;12.97;100.00
49377;BME280;35253;34.688;33.040;2023-02-11T08:53:39;101651.84;;;12.92;100.00
49377;BME280;35253;34.688;33.040;2023-02-11T08:56:05;101658.84;;;12.95;100.00
49377;BME280;35253;34.688;33.040;2023-02-11T08:58:31;101652.78;;;12.91;100.00
49377;BME280;35253;34.688;33.040;2023-02-11T09:00:57;101648.84;;;12.81;100.00
49377;BME280;35253;34.688;33.040;2023-02-11T09:03:22;101634.09;;;12.74;100.00
49377;BME280;35253;34.688;33.040;2023-02-11T09:05:48;101636.06;;;12.71;100.00
49377;BME280;35253;34.688;33.040;2023-02-11T09:08:16;101648.81;;;12.65;100.00
49377;BME280;35253;34.688;33.040;2023-02-11T09:10:42;101647.28;;;12.77;100.00
49377;BME280;35253;34.688;33.040;2023-02-11T09:13:07;101625.28;;;12.72;100.00
49377;BME280;35253;34.688;33.040;2023-02-11T09:15:33;101631.66;;;12.70;100.00
49377;BME280;35253;34.688;33.040;2023-02-11T09:17:58;101630.41;;;12.77;100.00
49377;BME280;35253;34.688;33.040;2023-02-11T09:20:24;101636.59;;;12.94;100.00
49377;BME280;35253;34.688;33.040;2023-02-11T09:22:51;101631.41;;;12.74;100.00
49377;BME280;35253;34.688;33.040;2023-02-11T09:25:17;101611.03;;;12.72;100.00
49377;BME280;35253;34.688;33.040;2023-02-11T09:27:43;101616.91;;;12.78;100.00
49377;BME280;35253;34.688;33.040;2023-02-11T09:30:08;101623.03;;;12.97;100.00
49377;BME280;35253;34.688;33.040;2023-02-11T09:32:34;101609.03;;;13.08;100.00
49377;BME280;35253;34.688;33.040;2023-02-11T09:34:59;101601.50;;;13.32;100.00
49377;BME280;35253;34.688;33.040;2023-02-11T09:37:25;101603.94;;;13.21;100.00
49377;BME280;35253;34.688;33.040;2023-02-11T09:39:50;101605.66;;;13.22;100.00
49377;BME280;35253;34.688;33.040;2023-02-11T09:44:44;101594.59;;;13.28;100.00
49377;BME280;35253;34.688;33.040;2023-02-11T09:49:40;101595.06;;;13.03;100.00
49377;BME280;35253;34.688;33.040;2023-02-11T09:54:53;101600.06;;;13.09;100.00
49377;BME280;35253;34.688;33.040;2023-02-11T09:57:20;101593.03;;;12.91;100.00
49377;BME280;35253;34.688;33.040;2023-02-11T09:59:46;101616.50;;;13.03;100.00
49377;BME280;35253;34.688;33.040;2023-02-11T10:02:19;101605.66;;;13.04;100.00
49377;BME280;35253;34.688;33.040;2023-02-11T10:05:04;101589.16;;;12.96;100.00
49377;BME280;35253;34.688;33.040;2023-02-11T10:18:12;101591.25;;;13.24;100.00
49377;BME280;35253;34.688;33.040;2023-02-11T10:23:15;101578.63;;;13.42;100.00
49377;BME280;35253;34.688;33.040;2023-02-11T10:25:44;101579.38;;;13.44;100.00
49377;BME280;35253;34.688;33.040;2023-02-11T10:28:12;101586.91;;;13.53;100.00
49377;BME280;35253;34.688;33.040;2023-02-11T10:30:59;101585.88;;;13.56;100.00
49377;BME280;35253;34.688;33.040;2023-02-11T10:33:28;101582.34;;;13.55;100.00
49377;BME280;35253;34.688;33.040;2023-02-11T10:35:56;101583.88;;;13.43;100.00
49377;BME280;35253;34.688;33.040;2023-02-11T10:38:22;101580.78;;;13.51;100.00
49377;BME280;35253;34.688;33.040;2023-02-11T10:40:47;101579.28;;;13.61;100.00
49377;BME280;35253;34.688;33.040;2023-02-11T10:43:13;101576.59;;;13.61;100.00
49377;BME280;35253;34.688;33.040;2023-02-11T10:45:44;101586.16;;;13.96;100.00
49377;BME280;35253;34.688;33.040;2023-02-11T10:51:16;101582.31;;;13.71;100.00
49377;BME280;35253;34.688;33.040;2023-02-11T10:53:42;101581.28;;;13.73;100.00
49377;BME280;35253;34.688;33.040;2023-02-11T10:56:10;101574.69;;;13.79;100.00
49377;BME280;35253;34.688;33.040;2023-02-11T10:58:39;101578.41;;;13.61;100.00
49377;BME280;35253;34.688;33.040;2023-02-11T11:01:05;101560.53;;;13.30;100.00
49377;BME280;35253;34.688;33.040;2023-02-11T11:03:33;101563.31;;;13.13;100.00
49377;BME280;35253;34.688;33.040;2023-02-11T11:06:01;101559.78;;;12.95;100.00
49377;BME280;35253;34.688;33.040;2023-02-11T11:08:44;101550.47;;;12.86;100.00
49377;BME280;35253;34.688;33.040;2023-02-11T11:11:12;101562.47;;;12.79;100.00
49377;BME280;35253;34.688;33.040;2023-02-11T11:13:39;101585.66;;;12.63;100.00
49377;BME280;35253;34.688;33.040;2023-02-11T11:18:30;101581.84;;;12.67;100.00
49377;BME280;35253;34.688;33.040;2023-02-11T11:20:59;101582.25;;;12.92;100.00
49377;BME280;35253;34.688;33.040;2023-02-11T11:23:25;101596.25;;;12.97;100.00
49377;BME280;35253;34.688;33.040;2023-02-11T11:26:04;101578.69;;;13.40;100.00
49377;BME280;35253;34.688;33.040;2023-02-11T11:28:32;101587.50;;;13.58;100.00
49377;BME280;35253;34.688;33.040;2023-02-11T11:31:02;101600.47;;;13.66;100.00
49377;BME280;35253;34.688;33.040;2023-02-11T11:33:30;101593.41;;;14.40;100.00
49377;BME280;35253;34.688;33.040;2023-02-11T11:36:04;101587.34;;;14.36;100.00
49377;BME280;35253;34.688;33.040;2023-02-11T11:38:30;101596.53;;;14.76;100.00
49377;BME280;35253;34.688;33.040;2023-02-11T11:41:17;101583.09;;;14.62;100.00
49377;BME280;35253;34.688;33.040;2023-02-11T11:46:27;101585.97;;;14.59;100.00
49377;BME280;35253;34.688;33.040;2023-02-11T11:48:55;101583.72;;;14.37;100.00
49377;BME280;35253;34.688;33.040;2023-02-11T11:51:25;101575.59;;;14.39;100.00
49377;BME280;35253;34.688;33.040;2023-02-11T11:56:18;101578.84;;;14.44;100.00
49377;BME280;35253;34.688;33.040;2023-02-11T11:58:45;101569.25;;;14.40;100.00
49377;BME280;35253;34.688;33.040;2023-02-11T12:04:02;101562.75;;;15.01;97.16
49377;BME280;35253;34.688;33.040;2023-02-11T12:09:19;101564.97;;;16.03;94.05
49377;BME280;35253;34.688;33.040;2023-02-11T12:25:26;101561.25;;;14.68;95.53
49377;BME280;35253;34.688;33.040;2023-02-11T12:28:04;101550.56;;;14.53;97.53
49377;BME280;35253;34.688;33.040;2023-02-11T12:33:07;101558.75;;;14.51;99.22
49377;BME280;35253;34.688;33.040;2023-02-11T12:43:40;101562.47;;;15.60;95.22
49377;BME280;35253;34.688;33.040;2023-02-11T12:49:06;101562.28;;;15.49;92.07
49377;BME280;35253;34.688;33.040;2023-02-11T12:54:10;101562.88;;;15.54;92.25
49377;BME280;35253;34.688;33.040;2023-02-11T13:01:48;101559.31;;;14.70;95.89
49377;BME280;35253;34.688;33.040;2023-02-11T13:04:20;101559.69;;;14.93;95.02
49377;BME280;35253;34.688;33.040;2023-02-11T13:06:50;101564.38;;;15.17;94.51
49377;BME280;35253;34.688;33.040;2023-02-11T13:09:19;101564.88;;;14.67;94.09
49377;BME280;35253;34.688;33.040;2023-02-11T13:11:48;101573.50;;;15.15;95.81
49377;BME280;35253;34.688;33.040;2023-02-11T13:14:28;101579.06;;;15.26;92.81
49377;BME280;35253;34.688;33.040;2023-02-11T13:16:56;101586.16;;;14.84;95.05
49377;BME280;35253;34.688;33.040;2023-02-11T13:19:28;101567.13;;;15.44;94.45
49377;BME280;35253;34.688;33.040;2023-02-11T13:33:15;101572.34;;;14.62;97.00
49377;BME280;35253;34.688;33.040;2023-02-11T13:35:32;101565.06;;;14.93;97.55
49377;BME280;35253;34.688;33.040;2023-02-11T13:37:58;101575.06;;;15.05;95.08
49377;BME280;35253;34.688;33.040;2023-02-11T13:40:26;101571.78;;;14.43;96.67
49377;BME280;35253;34.688;33.040;2023-02-11T13:42:59;101578.97;;;14.27;98.92
49377;BME280;35253;34.688;33.040;2023-02-11T13:48:29;101592.72;;;13.91;99.67
49377;BME280;35253;34.688;33.040;2023-02-11T13:50:56;101586.69;;;13.87;100.00
49377;BME280;35253;34.688;33.040;2023-02-11T13:53:23;101596.34;;;13.60;100.00
49377;BME280;35253;34.688;33.040;2023-02-11T13:55:50;101591.13;;;13.26;100.00
49377;BME280;35253;34.688;33.040;2023-02-11T13:58:18;101587.59;;;13.25;100.00
49377;BME280;35253;34.688;33.040;2023-02-11T14:00:57;101593.72;;;13.12;100.00
49377;BME280;35253;34.688;33.040;2023-02-11T14:03:24;101603.75;;;13.24;100.00
49377;BME280;35253;34.688;33.040;2023-02-11T14:09:01;101601.78;;;12.94;100.00
49377;BME280;35253;34.688;33.040;2023-02-11T14:14:24;101605.84;;;13.01;100.00
49377;BME280;35253;34.688;33.040;2023-02-11T14:19:36;101612.38;;;12.80;100.00
49377;BME280;35253;34.688;33.040;2023-02-11T14:22:05;101613.47;;;12.76;100.00
49377;BME280;35253;34.688;33.040;2023-02-11T14:29:37;101619.22;;;12.69;100.00
49377;BME280;35253;34.688;33.040;2023-02-11T14:34:45;101632.22;;;12.59;100.00
49377;BME280;35253;34.688;33.040;2023-02-11T14:39:51;101638.06;;;12.33;100.00
49377;BME280;35253;34.688;33.040;2023-02-11T14:42:19;101650.16;;;12.40;100.00
49377;BME280;35253;34.688;33.040;2023-02-11T14:44:49;101652.28;;;12.33;100.00
49377;BME280;35253;34.688;33.040;2023-02-11T14:47:17;101643.53;;;12.30;100.00
49377;BME280;35253;34.688;33.040;2023-02-11T14:49:43;101647.03;;;12.32;100.00